createdAt,value
2023-03-27T00:00:13.164Z,5.20
2023-03-27T00:02:41.667Z,5.10
2023-03-27T00:05:11.165Z,5.10
2023-03-27T00:07:41.114Z,5.10
2023-03-27T00:10:12.185Z,5.20
2023-03-27T00:12:40.206Z,5.20
2023-03-27T00:15:09.731Z,5.10
2023-03-27T00:17:38.053Z,5.20
2023-03-27T00:20:07.015Z,5.20
2023-03-27T00:22:35.914Z,5.20
2023-03-27T00:25:04.015Z,5.20
2023-03-27T00:27:33.285Z,5.10
2023-03-27T00:30:01.121Z,5.00
2023-03-27T00:32:29.270Z,5.00
2023-03-27T00:34:57.267Z,5.00
2023-03-27T00:37:25.212Z,5.00
2023-03-27T00:39:53.065Z,5.00
2023-03-27T00:42:23.670Z,5.00
2023-03-27T00:44:53.955Z,5.00
2023-03-27T00:47:30.914Z,5.00
2023-03-27T00:50:00.446Z,5.00
2023-03-27T00:52:29.492Z,5.10
2023-03-27T00:54:59.900Z,5.10
2023-03-27T00:57:28.163Z,5.20
2023-03-27T01:00:01.690Z,5.20
2023-03-27T01:02:29.782Z,5.20
2023-03-27T01:04:58.283Z,5.20
2023-03-27T01:07:26.291Z,5.30
2023-03-27T01:09:54.723Z,5.30
2023-03-27T01:12:32.819Z,5.30
2023-03-27T01:15:14.197Z,5.40
2023-03-27T01:17:53.536Z,5.30
2023-03-27T01:20:49.362Z,5.40
2023-03-27T01:23:58.935Z,5.40
2023-03-27T01:27:10.594Z,5.30
2023-03-27T01:30:08.949Z,5.40
2023-03-27T01:33:06.868Z,5.40
2023-03-27T01:36:04.768Z,5.40
2023-03-27T01:39:20.631Z,5.40
2023-03-27T01:41:55.444Z,5.30
2023-03-27T01:44:36.450Z,5.30
2023-03-27T01:47:21.185Z,5.20
2023-03-27T01:49:54.341Z,5.20
2023-03-27T01:52:28.054Z,5.20
2023-03-27T01:55:03.454Z,5.20
2023-03-27T01:57:49.698Z,5.10
2023-03-27T02:00:22.831Z,5.10
2023-03-27T02:02:55.016Z,5.10
2023-03-27T02:05:28.865Z,5.00
2023-03-27T02:08:01.281Z,5.00
2023-03-27T02:10:36.123Z,4.90
2023-03-27T02:13:18.248Z,4.90
2023-03-27T02:15:49.061Z,4.90
2023-03-27T02:18:25.129Z,4.80
2023-03-27T02:20:53.860Z,4.70
2023-03-27T02:23:22.849Z,4.70
2023-03-27T02:25:54.288Z,4.70
2023-03-27T02:28:42.125Z,4.80
2023-03-27T02:31:33.783Z,4.80
2023-03-27T02:34:26.851Z,4.80
2023-03-27T02:37:02.007Z,4.80
2023-03-27T02:39:57.825Z,4.80
2023-03-27T02:42:40.335Z,4.80
2023-03-27T02:45:14.341Z,4.80
2023-03-27T02:47:49.198Z,4.70
2023-03-27T02:50:20.181Z,4.70
2023-03-27T02:52:52.168Z,4.70
2023-03-27T02:55:23.962Z,4.70
2023-03-27T02:57:59.464Z,4.60
2023-03-27T03:00:43.742Z,4.60
2023-03-27T03:03:37.506Z,4.60
2023-03-27T03:06:14.304Z,4.60
2023-03-27T03:08:43.253Z,4.60
2023-03-27T03:11:14.996Z,4.60
2023-03-27T03:13:44.652Z,4.60
2023-03-27T03:16:12.718Z,4.60
2023-03-27T03:18:41.238Z,4.60
2023-03-27T03:21:09.564Z,4.60
2023-03-27T03:23:39.062Z,4.60
2023-03-27T03:26:08.037Z,4.50
2023-03-27T03:28:59.811Z,4.60
2023-03-27T03:31:42.922Z,4.60
2023-03-27T03:34:11.884Z,4.50
2023-03-27T03:36:41.874Z,4.50
2023-03-27T03:39:11.320Z,4.50
2023-03-27T03:41:39.539Z,4.50
2023-03-27T03:44:09.888Z,4.50
2023-03-27T03:46:38.642Z,4.50
2023-03-27T03:49:06.987Z,4.50
2023-03-27T03:51:36.859Z,4.50
2023-03-27T03:54:06.651Z,4.40
2023-03-27T03:56:34.774Z,4.40
2023-03-27T03:59:02.861Z,4.40
2023-03-27T04:01:34.312Z,4.30
2023-03-27T04:04:05.022Z,4.30
2023-03-27T04:06:53.048Z,4.20
2023-03-27T04:09:21.356Z,4.10
2023-03-27T04:12:05.855Z,4.10
2023-03-27T04:14:56.743Z,4.10
2023-03-27T04:18:02.152Z,4.10
2023-03-27T04:20:34.591Z,4.00
2023-03-27T04:23:04.418Z,3.90
2023-03-27T04:25:37.669Z,3.90
2023-03-27T04:28:10.265Z,3.90
2023-03-27T04:30:44.070Z,4.00
2023-03-27T04:33:31.996Z,4.00
2023-03-27T04:36:38.065Z,4.00
2023-03-27T04:39:11.869Z,4.10
2023-03-27T04:41:39.794Z,4.10
2023-03-27T04:44:09.007Z,4.20
2023-03-27T04:46:41.310Z,4.20
2023-03-27T04:49:13.821Z,4.20
2023-03-27T04:51:59.081Z,4.20
2023-03-27T04:54:32.794Z,4.30
2023-03-27T04:57:02.075Z,4.30
2023-03-27T04:59:31.808Z,4.30
2023-03-27T05:02:20.094Z,4.30
2023-03-27T05:04:58.467Z,4.20
2023-03-27T05:07:32.586Z,4.20
2023-03-27T05:10:02.489Z,4.20
2023-03-27T05:12:31.025Z,4.10
2023-03-27T05:15:06.098Z,4.20
2023-03-27T05:17:42.139Z,4.20
2023-03-27T05:20:15.041Z,4.20
2023-03-27T05:22:44.595Z,4.20
2023-03-27T05:25:25.521Z,4.10
2023-03-27T05:27:54.932Z,4.10
2023-03-27T05:30:26.988Z,4.10
2023-03-27T05:33:24.806Z,4.00
2023-03-27T05:35:57.473Z,3.90
2023-03-27T05:38:26.597Z,3.90
2023-03-27T05:41:16.294Z,4.00
2023-03-27T05:43:50.167Z,4.00
2023-03-27T05:46:21.104Z,4.10
2023-03-27T05:48:55.042Z,4.10
2023-03-27T05:51:26.659Z,4.10
2023-03-27T05:53:56.514Z,4.10
2023-03-27T05:56:34.100Z,4.00
2023-03-27T05:59:04.230Z,3.90
2023-03-27T06:01:36.180Z,3.90
2023-03-27T06:04:04.565Z,3.90
2023-03-27T06:06:55.334Z,3.90
2023-03-27T06:09:23.519Z,3.80
2023-03-27T06:12:29.983Z,3.90
2023-03-27T06:15:07.370Z,3.80
2023-03-27T06:17:42.238Z,3.90
2023-03-27T06:20:12.723Z,3.80
2023-03-27T06:22:48.714Z,3.70
2023-03-27T06:25:20.193Z,3.70
2023-03-27T06:27:49.530Z,3.70
2023-03-27T06:30:20.429Z,3.60
2023-03-27T06:33:08.616Z,3.60
2023-03-27T06:35:36.704Z,3.60
2023-03-27T06:38:18.978Z,3.60
2023-03-27T06:40:47.777Z,3.60
2023-03-27T06:43:18.949Z,3.60
2023-03-27T06:45:54.608Z,3.60
2023-03-27T06:48:55.258Z,3.50
2023-03-27T06:51:23.417Z,3.40
2023-03-27T06:53:54.926Z,3.40
2023-03-27T06:56:23.494Z,3.30
2023-03-27T06:59:16.658Z,3.20
2023-03-27T07:01:47.154Z,3.20
2023-03-27T07:04:30.251Z,3.20
2023-03-27T07:07:11.139Z,3.30
2023-03-27T07:09:43.410Z,3.40
2023-03-27T07:12:13.514Z,3.20
2023-03-27T07:14:43.705Z,3.20
2023-03-27T07:17:11.677Z,3.20
2023-03-27T07:19:59.246Z,3.10
2023-03-27T07:22:28.735Z,3.10
2023-03-27T07:25:00.104Z,3.10
2023-03-27T07:27:35.987Z,3.10
2023-03-27T07:30:08.187Z,3.10
2023-03-27T07:32:37.974Z,3.00
2023-03-27T07:35:08.773Z,2.90
2023-03-27T07:37:57.658Z,2.90
2023-03-27T07:40:40.731Z,2.90
2023-03-27T07:43:35.302Z,2.90
2023-03-27T07:46:06.164Z,3.00
2023-03-27T07:48:35.858Z,3.10
2023-03-27T07:51:13.335Z,3.10
2023-03-27T07:53:43.642Z,3.00
2023-03-27T07:56:19.215Z,3.00
2023-03-27T07:58:48.935Z,3.00
2023-03-27T08:01:21.934Z,2.80
2023-03-27T08:03:51.088Z,2.80
2023-03-27T08:06:21.380Z,2.80
2023-03-27T08:08:50.814Z,2.80
2023-03-27T08:11:30.350Z,2.80
2023-03-27T08:13:59.471Z,2.80
2023-03-27T08:16:30.323Z,2.80
2023-03-27T08:19:01.282Z,2.70
2023-03-27T08:21:33.258Z,2.80
2023-03-27T08:24:04.659Z,2.80
2023-03-27T08:26:37.108Z,2.80
2023-03-27T08:29:09.937Z,3.20
2023-03-27T08:31:39.442Z,3.60
2023-03-27T08:34:08.634Z,3.90
2023-03-27T08:36:46.462Z,4.20
2023-03-27T08:39:15.657Z,4.40
2023-03-27T08:41:56.932Z,4.50
2023-03-27T08:44:35.169Z,4.50
2023-03-27T08:47:14.296Z,4.40
2023-03-27T08:49:59.808Z,4.50
2023-03-27T08:52:35.683Z,4.60
2023-03-27T08:55:12.966Z,4.40
2023-03-27T08:57:51.342Z,4.30
2023-03-27T09:00:26.476Z,4.30
2023-03-27T09:03:13.978Z,4.20
2023-03-27T09:05:48.392Z,3.90
2023-03-27T09:08:27.694Z,3.70
2023-03-27T09:11:05.743Z,3.50
2023-03-27T09:13:45.260Z,3.40
2023-03-27T09:16:18.831Z,3.40
2023-03-27T09:18:54.452Z,3.40
2023-03-27T09:21:35.685Z,3.30
2023-03-27T09:24:16.655Z,3.40
2023-03-27T09:27:18.752Z,3.40
2023-03-27T09:30:05.342Z,3.40
2023-03-27T09:32:58.761Z,3.40
2023-03-27T09:35:27.388Z,3.40
2023-03-27T09:38:00.549Z,3.50
2023-03-27T09:40:34.011Z,3.50
2023-03-27T09:43:09.247Z,3.50
2023-03-27T09:45:41.913Z,3.50
2023-03-27T09:48:15.863Z,3.40
2023-03-27T09:50:47.349Z,3.60
2023-03-27T09:53:36.343Z,3.80
2023-03-27T09:56:14.883Z,4.00
2023-03-27T09:58:49.515Z,3.90
2023-03-27T10:01:29.166Z,4.00
2023-03-27T10:04:13.804Z,4.00
2023-03-27T10:06:47.546Z,4.00
2023-03-27T10:09:29.498Z,4.00
2023-03-27T10:12:10.521Z,4.20
2023-03-27T10:14:41.855Z,4.60
2023-03-27T10:17:23.630Z,4.80
2023-03-27T10:20:02.301Z,4.60
2023-03-27T10:22:39.241Z,4.90
2023-03-27T10:25:17.246Z,5.00
2023-03-27T10:27:54.417Z,4.90
2023-03-27T10:30:40.474Z,5.00
2023-03-27T10:33:35.188Z,5.50
2023-03-27T10:36:24.237Z,6.00
2023-03-27T10:38:57.327Z,6.00
2023-03-27T10:41:35.851Z,5.60
2023-03-27T10:44:16.836Z,5.20
2023-03-27T10:46:51.564Z,5.20
2023-03-27T10:49:30.107Z,5.50
2023-03-27T10:52:08.440Z,5.50
2023-03-27T10:55:05.241Z,5.90
2023-03-27T10:57:37.615Z,5.90
2023-03-27T11:00:13.743Z,5.60
2023-03-27T11:02:57.248Z,5.50
2023-03-27T11:05:30.235Z,5.20
2023-03-27T11:08:06.242Z,5.40
2023-03-27T11:10:37.823Z,6.00
2023-03-27T11:13:09.948Z,6.70
2023-03-27T11:15:42.165Z,7.10
2023-03-27T11:18:37.474Z,6.80
2023-03-27T11:21:12.775Z,7.10
2023-03-27T11:23:55.855Z,7.20
2023-03-27T11:26:39.499Z,7.10
2023-03-27T11:29:15.100Z,7.00
2023-03-27T11:31:51.218Z,7.60
2023-03-27T11:34:36.654Z,7.90
2023-03-27T11:37:38.120Z,7.60
2023-03-27T11:40:13.712Z,7.60
2023-03-27T11:42:44.857Z,7.90
2023-03-27T11:45:15.581Z,7.60
2023-03-27T11:48:07.406Z,7.90
2023-03-27T11:50:48.797Z,7.60
2023-03-27T11:53:39.044Z,7.30
2023-03-27T11:56:30.332Z,7.20
2023-03-27T11:59:31.695Z,7.50
2023-03-27T12:02:18.261Z,7.20
2023-03-27T12:04:54.579Z,6.40
2023-03-27T12:07:39.115Z,6.80
2023-03-27T12:10:29.502Z,7.50
2023-03-27T12:13:42.328Z,7.40
2023-03-27T12:16:35.927Z,6.80
2023-03-27T12:19:27.708Z,6.60
2023-03-27T12:22:26.204Z,6.20
2023-03-27T12:25:17.141Z,6.20
2023-03-27T12:28:34.461Z,5.80
2023-03-27T12:31:26.841Z,5.90
2023-03-27T12:34:01.235Z,6.50
2023-03-27T12:36:35.747Z,7.10
2023-03-27T12:39:13.765Z,7.10
2023-03-27T12:41:46.138Z,7.20
2023-03-27T12:44:29.974Z,7.30
2023-03-27T12:47:18.407Z,7.20
2023-03-27T12:49:56.720Z,7.00
2023-03-27T12:52:28.541Z,6.80
2023-03-27T12:55:21.645Z,7.00
2023-03-27T12:57:55.426Z,7.00
2023-03-27T13:01:01.646Z,7.20
2023-03-27T13:04:07.246Z,7.00
2023-03-27T13:06:43.669Z,7.30
2023-03-27T13:09:25.791Z,7.20
2023-03-27T13:12:23.186Z,6.80
2023-03-27T13:15:20.571Z,6.70
2023-03-27T13:18:16.402Z,6.40
2023-03-27T13:20:49.868Z,6.60
2023-03-27T13:23:33.070Z,6.60
2023-03-27T13:26:14.276Z,6.50
2023-03-27T13:28:48.581Z,6.50
2023-03-27T13:31:56.811Z,6.20
2023-03-27T13:35:26.636Z,5.80
2023-03-27T13:37:58.933Z,5.50
2023-03-27T13:40:40.534Z,5.30
2023-03-27T13:43:22.852Z,5.40
2023-03-27T13:45:59.988Z,5.80
2023-03-27T13:49:22.189Z,6.00
2023-03-27T13:52:31.572Z,6.20
2023-03-27T13:55:21.482Z,6.40
2023-03-27T13:58:33.659Z,6.50
2023-03-27T14:01:09.385Z,6.90
2023-03-27T14:04:13.711Z,7.10
2023-03-27T14:07:19.236Z,8.00
2023-03-27T14:10:15.761Z,7.90
2023-03-27T14:12:59.163Z,8.10
2023-03-27T14:16:06.890Z,7.60
2023-03-27T14:19:02.022Z,7.40
2023-03-27T14:21:38.310Z,7.90
2023-03-27T14:24:25.128Z,8.10
2023-03-27T14:27:02.077Z,8.20
2023-03-27T14:29:32.413Z,8.40
2023-03-27T14:32:04.618Z,8.20
2023-03-27T14:34:47.241Z,7.70
2023-03-27T14:37:37.515Z,7.10
2023-03-27T14:40:23.006Z,6.70
2023-03-27T14:42:55.949Z,6.20
2023-03-27T14:45:27.564Z,5.30
2023-03-27T14:47:59.557Z,4.80
2023-03-27T14:50:34.354Z,4.40
2023-03-27T14:53:08.829Z,3.80
2023-03-27T14:56:05.099Z,3.40
2023-03-27T14:58:54.219Z,3.20
2023-03-27T15:01:23.715Z,2.80
2023-03-27T15:03:55.465Z,2.80
2023-03-27T15:06:26.386Z,2.90
2023-03-27T15:09:05.368Z,3.30
2023-03-27T15:11:57.712Z,3.60
2023-03-27T15:14:30.383Z,3.80
2023-03-27T15:17:01.095Z,3.80
2023-03-27T15:19:34.999Z,3.80
2023-03-27T15:22:07.411Z,3.90
2023-03-27T15:24:40.663Z,4.10
2023-03-27T15:27:17.085Z,4.20
2023-03-27T15:29:49.509Z,4.20
2023-03-27T15:32:22.046Z,4.20
2023-03-27T15:34:56.728Z,3.80
2023-03-27T15:37:28.531Z,3.70
2023-03-27T15:40:04.234Z,3.60
2023-03-27T15:42:46.245Z,3.80
2023-03-27T15:45:16.690Z,4.00
2023-03-27T15:47:45.450Z,4.10
2023-03-27T15:50:20.928Z,4.20
2023-03-27T15:52:50.373Z,4.20
2023-03-27T15:55:38.356Z,4.20
2023-03-27T15:58:22.240Z,4.20
2023-03-27T16:00:54.643Z,4.10
2023-03-27T16:03:24.960Z,4.20
2023-03-27T16:05:55.740Z,4.10
2023-03-27T16:08:31.632Z,4.10
2023-03-27T16:11:00.495Z,4.20
2023-03-27T16:13:36.058Z,4.10
2023-03-27T16:16:22.606Z,4.10
2023-03-27T16:18:51.616Z,4.30
2023-03-27T16:21:23.033Z,4.60
2023-03-27T16:23:51.026Z,4.80
2023-03-27T16:26:25.705Z,4.70
2023-03-27T16:28:57.135Z,4.60
2023-03-27T16:31:25.030Z,4.70
2023-03-27T16:33:52.963Z,4.50
2023-03-27T16:36:26.467Z,4.40
2023-03-27T16:38:54.410Z,4.20
2023-03-27T16:41:22.424Z,4.10
2023-03-27T16:43:51.782Z,4.20
2023-03-27T16:46:23.944Z,4.20
2023-03-27T16:48:53.339Z,4.10
2023-03-27T16:51:22.674Z,3.90
2023-03-27T16:53:52.759Z,3.80
2023-03-27T16:56:21.205Z,3.70
2023-03-27T16:58:49.202Z,3.20
2023-03-27T17:01:17.239Z,2.70
2023-03-27T17:03:46.571Z,2.30
2023-03-27T17:06:18.824Z,2.50
2023-03-27T17:08:46.766Z,2.60
2023-03-27T17:11:15.099Z,2.60
2023-03-27T17:13:43.720Z,2.50
2023-03-27T17:16:11.984Z,2.40
2023-03-27T17:18:39.996Z,2.30
2023-03-27T17:21:09.488Z,2.30
2023-03-27T17:23:37.513Z,2.30
2023-03-27T17:26:07.134Z,2.30
2023-03-27T17:28:36.170Z,2.30
2023-03-27T17:31:05.477Z,2.30
2023-03-27T17:33:33.973Z,2.30
2023-03-27T17:36:03.256Z,2.30
2023-03-27T17:38:32.581Z,2.20
2023-03-27T17:41:00.544Z,2.20
2023-03-27T17:43:28.508Z,2.10
2023-03-27T17:45:56.598Z,2.10
2023-03-27T17:48:24.795Z,2.00
2023-03-27T17:51:07.422Z,2.00
2023-03-27T17:53:38.185Z,2.00
2023-03-27T17:56:07.384Z,2.10
2023-03-27T17:58:36.947Z,2.20
2023-03-27T18:01:14.549Z,2.30
2023-03-27T18:03:42.541Z,2.10
2023-03-27T18:06:10.552Z,1.90
2023-03-27T18:08:40.128Z,1.60
2023-03-27T18:11:09.948Z,1.50
2023-03-27T18:13:38.712Z,1.40
2023-03-27T18:16:08.716Z,1.40
2023-03-27T18:18:37.192Z,1.40
2023-03-27T18:21:05.702Z,1.40
2023-03-27T18:23:34.841Z,1.50
2023-03-27T18:26:06.039Z,1.50
2023-03-27T18:28:34.735Z,1.50
2023-03-27T18:31:04.502Z,1.50
2023-03-27T18:33:33.953Z,1.50
2023-03-27T18:36:02.289Z,1.50
2023-03-27T18:38:31.157Z,1.50
2023-03-27T18:40:59.802Z,1.60
2023-03-27T18:43:29.414Z,1.60
2023-03-27T18:45:58.141Z,1.60
2023-03-27T18:48:26.592Z,1.70
2023-03-27T18:50:55.449Z,1.70
2023-03-27T18:53:23.840Z,1.80
2023-03-27T18:55:53.001Z,1.70
2023-03-27T18:58:24.187Z,1.70
2023-03-27T19:00:53.499Z,1.60
2023-03-27T19:03:23.464Z,1.60
2023-03-27T19:05:52.986Z,1.70
2023-03-27T19:08:22.468Z,1.70
2023-03-27T19:10:50.428Z,1.70
2023-03-27T19:13:22.878Z,1.70
2023-03-27T19:16:14.321Z,1.70
2023-03-27T19:19:09.055Z,1.70
2023-03-27T19:21:49.592Z,1.70
2023-03-27T19:24:26.578Z,1.60
2023-03-27T19:26:54.763Z,1.60
2023-03-27T19:29:22.842Z,1.50
2023-03-27T19:31:54.371Z,1.50
2023-03-27T19:34:29.940Z,1.50
2023-03-27T19:37:09.696Z,1.50
2023-03-27T19:39:37.784Z,1.40
2023-03-27T19:42:06.010Z,1.40
2023-03-27T19:44:38.005Z,1.30
2023-03-27T19:47:07.723Z,1.30
2023-03-27T19:49:35.771Z,1.20
2023-03-27T19:52:22.690Z,1.10
2023-03-27T19:54:50.708Z,1.10
2023-03-27T19:57:18.788Z,1.10
2023-03-27T19:59:46.816Z,1.10
2023-03-27T20:02:16.281Z,1.00
2023-03-27T20:04:44.371Z,1.10
2023-03-27T20:07:12.834Z,1.10
2023-03-27T20:09:40.751Z,1.00
2023-03-27T20:12:11.181Z,1.00
2023-03-27T20:14:39.147Z,0.90
2023-03-27T20:17:12.253Z,0.90
2023-03-27T20:19:52.146Z,0.90
2023-03-27T20:22:20.657Z,0.90
2023-03-27T20:24:48.948Z,0.80
2023-03-27T20:27:19.743Z,0.70
2023-03-27T20:29:48.061Z,0.60
2023-03-27T20:32:16.200Z,0.60
2023-03-27T20:34:46.307Z,0.70
2023-03-27T20:37:16.773Z,0.60
2023-03-27T20:40:11.673Z,0.60
2023-03-27T20:42:46.847Z,0.60
2023-03-27T20:45:19.177Z,0.50
2023-03-27T20:47:48.713Z,0.50
2023-03-27T20:50:17.471Z,0.50
2023-03-27T20:52:46.775Z,0.50
2023-03-27T20:55:22.874Z,0.40
2023-03-27T20:58:00.749Z,0.50
2023-03-27T21:00:28.875Z,0.40
2023-03-27T21:02:56.877Z,0.50
2023-03-27T21:05:26.388Z,0.50
2023-03-27T21:07:56.494Z,0.50
2023-03-27T21:10:24.918Z,0.50
2023-03-27T21:12:56.769Z,0.50
2023-03-27T21:15:24.693Z,0.50
2023-03-27T21:17:52.639Z,0.40
2023-03-27T21:20:20.697Z,0.40
2023-03-27T21:22:52.652Z,0.50
2023-03-27T21:25:22.685Z,0.50
2023-03-27T21:27:58.798Z,0.50
2023-03-27T21:30:46.671Z,0.50
2023-03-27T21:33:15.686Z,0.50
2023-03-27T21:35:45.535Z,0.50
2023-03-27T21:38:13.945Z,0.50
2023-03-27T21:40:43.331Z,0.50
2023-03-27T21:43:11.437Z,0.50
2023-03-27T21:45:39.381Z,0.40
2023-03-27T21:48:10.256Z,0.40
2023-03-27T21:50:38.541Z,0.40
2023-03-27T21:53:06.596Z,0.50
2023-03-27T21:55:35.775Z,0.50
2023-03-27T21:58:05.441Z,0.50
2023-03-27T22:00:33.880Z,0.50
2023-03-27T22:03:01.805Z,0.50
2023-03-27T22:05:29.813Z,0.40
2023-03-27T22:07:58.581Z,0.40
2023-03-27T22:10:26.472Z,0.40
2023-03-27T22:12:56.440Z,0.40
2023-03-27T22:15:25.873Z,0.40
2023-03-27T22:17:53.849Z,0.40
2023-03-27T22:20:21.923Z,0.40
2023-03-27T22:22:49.857Z,0.40
2023-03-27T22:25:17.907Z,0.40
2023-03-27T22:27:46.431Z,0.40
2023-03-27T22:30:14.989Z,0.40
2023-03-27T22:32:44.542Z,0.50
2023-03-27T22:35:13.212Z,0.50
2023-03-27T22:37:41.375Z,0.30
2023-03-27T22:40:10.065Z,0.30
2023-03-27T22:42:37.946Z,0.30
2023-03-27T22:45:06.525Z,0.30
2023-03-27T22:47:35.472Z,0.30
2023-03-27T22:50:06.460Z,0.30
2023-03-27T22:52:34.407Z,0.20
2023-03-27T22:55:02.294Z,0.30
2023-03-27T22:57:30.241Z,0.30
2023-03-27T22:59:58.175Z,0.30
2023-03-27T23:02:26.079Z,0.40
2023-03-27T23:04:54.455Z,0.40
2023-03-27T23:07:23.688Z,0.50
2023-03-27T23:09:52.024Z,0.50
2023-03-27T23:12:21.325Z,0.50
2023-03-27T23:14:49.170Z,0.50
2023-03-27T23:17:17.144Z,0.60
2023-03-27T23:19:45.114Z,0.70
2023-03-27T23:22:12.957Z,0.60
2023-03-27T23:24:42.149Z,0.70
2023-03-27T23:27:10.358Z,0.80
2023-03-27T23:29:38.203Z,0.80
2023-03-27T23:32:06.640Z,0.80
2023-03-27T23:34:34.641Z,0.80
2023-03-27T23:37:02.504Z,0.90
2023-03-27T23:39:30.399Z,0.90
2023-03-27T23:41:59.609Z,0.90
2023-03-27T23:44:27.549Z,0.90
2023-03-27T23:46:55.421Z,0.90
2023-03-27T23:49:23.383Z,0.90
2023-03-27T23:51:51.210Z,0.90
2023-03-27T23:54:19.081Z,0.90
2023-03-27T23:56:47.021Z,1.00
2023-03-27T23:59:16.315Z,1.00
